sensor_id;sensor_type;location;lat;lon;timestamp;P1;durP1;ratioP1;P2;durP2;ratioP2
1563;SDS011;775;51.958;7.976;2022-07-23T00:01:26;7.80;;;3.80;;
1563;SDS011;775;51.958;7.976;2022-07-23T00:03:53;10.63;;;4.13;;
1563;SDS011;775;51.958;7.976;2022-07-23T00:06:21;7.00;;;3.97;;
1563;SDS011;775;51.958;7.976;2022-07-23T00:08:49;8.77;;;4.07;;
1563;SDS011;775;51.958;7.976;2022-07-23T00:11:16;7.70;;;4.00;;
1563;SDS011;775;51.958;7.976;2022-07-23T00:13:43;9.63;;;5.63;;
1563;SDS011;775;51.958;7.976;2022-07-23T00:16:10;6.17;;;4.13;;
1563;SDS011;775;51.958;7.976;2022-07-23T00:18:39;7.40;;;4.17;;
1563;SDS011;775;51.958;7.976;2022-07-23T00:21:06;6.80;;;4.00;;
1563;SDS011;775;51.958;7.976;2022-07-23T00:23:34;7.70;;;4.57;;
1563;SDS011;775;51.958;7.976;2022-07-23T00:26:01;7.90;;;4.40;;
1563;SDS011;775;51.958;7.976;2022-07-23T00:28:28;6.67;;;3.80;;
1563;SDS011;775;51.958;7.976;2022-07-23T00:30:55;7.50;;;4.37;;
1563;SDS011;775;51.958;7.976;2022-07-23T00:33:22;6.70;;;4.50;;
1563;SDS011;775;51.958;7.976;2022-07-23T00:35:51;8.20;;;4.80;;
1563;SDS011;775;51.958;7.976;2022-07-23T00:38:18;7.60;;;4.77;;
1563;SDS011;775;51.958;7.976;2022-07-23T00:40:45;8.10;;;5.33;;
1563;SDS011;775;51.958;7.976;2022-07-23T00:43:13;8.50;;;4.53;;
1563;SDS011;775;51.958;7.976;2022-07-23T00:45:40;9.90;;;5.40;;
1563;SDS011;775;51.958;7.976;2022-07-23T00:48:07;7.63;;;4.90;;
1563;SDS011;775;51.958;7.976;2022-07-23T00:50:34;8.67;;;5.33;;
1563;SDS011;775;51.958;7.976;2022-07-23T00:53:03;8.57;;;5.67;;
1563;SDS011;775;51.958;7.976;2022-07-23T00:55:30;7.37;;;4.73;;
1563;SDS011;775;51.958;7.976;2022-07-23T00:57:57;7.03;;;4.90;;
1563;SDS011;775;51.958;7.976;2022-07-23T01:00:25;7.97;;;5.07;;
1563;SDS011;775;51.958;7.976;2022-07-23T01:02:52;8.33;;;5.20;;
1563;SDS011;775;51.958;7.976;2022-07-23T01:05:19;8.23;;;4.70;;
1563;SDS011;775;51.958;7.976;2022-07-23T01:07:48;9.47;;;5.00;;
1563;SDS011;775;51.958;7.976;2022-07-23T01:10:16;9.20;;;5.40;;
1563;SDS011;775;51.958;7.976;2022-07-23T01:12:59;9.03;;;5.23;;
1563;SDS011;775;51.958;7.976;2022-07-23T01:15:27;8.43;;;4.57;;
1563;SDS011;775;51.958;7.976;2022-07-23T01:17:54;8.67;;;5.23;;
1563;SDS011;775;51.958;7.976;2022-07-23T01:20:21;7.67;;;5.40;;
1563;SDS011;775;51.958;7.976;2022-07-23T01:22:51;8.63;;;5.40;;
1563;SDS011;775;51.958;7.976;2022-07-23T01:25:18;7.80;;;5.03;;
1563;SDS011;775;51.958;7.976;2022-07-23T01:27:46;9.23;;;4.63;;
1563;SDS011;775;51.958;7.976;2022-07-23T01:30:13;7.93;;;5.10;;
1563;SDS011;775;51.958;7.976;2022-07-23T01:32:40;7.73;;;5.00;;
1563;SDS011;775;51.958;7.976;2022-07-23T01:35:08;7.70;;;5.20;;
1563;SDS011;775;51.958;7.976;2022-07-23T01:37:36;8.70;;;5.33;;
1563;SDS011;775;51.958;7.976;2022-07-23T01:40:05;8.00;;;4.80;;
1563;SDS011;775;51.958;7.976;2022-07-23T01:42:33;7.83;;;5.43;;
1563;SDS011;775;51.958;7.976;2022-07-23T01:45:01;8.30;;;6.00;;
1563;SDS011;775;51.958;7.976;2022-07-23T01:47:28;7.80;;;5.40;;
1563;SDS011;775;51.958;7.976;2022-07-23T01:49:55;10.20;;;5.97;;
1563;SDS011;775;51.958;7.976;2022-07-23T01:52:22;10.57;;;6.03;;
1563;SDS011;775;51.958;7.976;2022-07-23T01:54:50;9.77;;;4.67;;
1563;SDS011;775;51.958;7.976;2022-07-23T01:57:18;9.20;;;5.93;;
1563;SDS011;775;51.958;7.976;2022-07-23T01:59:45;8.20;;;5.77;;
1563;SDS011;775;51.958;7.976;2022-07-23T02:02:12;7.90;;;5.50;;
1563;SDS011;775;51.958;7.976;2022-07-23T02:04:40;7.40;;;5.63;;
1563;SDS011;775;51.958;7.976;2022-07-23T02:07:07;9.63;;;5.43;;
1563;SDS011;775;51.958;7.976;2022-07-23T02:09:34;8.30;;;5.20;;
1563;SDS011;775;51.958;7.976;2022-07-23T02:12:01;10.27;;;5.63;;
1563;SDS011;775;51.958;7.976;2022-07-23T02:14:30;8.10;;;5.43;;
1563;SDS011;775;51.958;7.976;2022-07-23T02:16:57;8.40;;;5.47;;
1563;SDS011;775;51.958;7.976;2022-07-23T02:19:25;8.13;;;5.73;;
1563;SDS011;775;51.958;7.976;2022-07-23T02:21:52;8.60;;;5.00;;
1563;SDS011;775;51.958;7.976;2022-07-23T02:24:19;10.60;;;5.50;;
1563;SDS011;775;51.958;7.976;2022-07-23T02:26:46;9.10;;;6.23;;
1563;SDS011;775;51.958;7.976;2022-07-23T02:29:13;8.00;;;5.23;;
1563;SDS011;775;51.958;7.976;2022-07-23T02:31:42;10.50;;;5.80;;
1563;SDS011;775;51.958;7.976;2022-07-23T02:34:09;8.60;;;5.90;;
1563;SDS011;775;51.958;7.976;2022-07-23T02:36:37;8.43;;;6.10;;
1563;SDS011;775;51.958;7.976;2022-07-23T02:39:04;8.43;;;5.20;;
1563;SDS011;775;51.958;7.976;2022-07-23T02:41:32;7.50;;;5.00;;
1563;SDS011;775;51.958;7.976;2022-07-23T02:43:59;10.80;;;5.30;;
1563;SDS011;775;51.958;7.976;2022-07-23T02:46:26;9.27;;;5.30;;
1563;SDS011;775;51.958;7.976;2022-07-23T02:48:55;7.73;;;5.10;;
1563;SDS011;775;51.958;7.976;2022-07-23T02:51:22;8.83;;;5.87;;
1563;SDS011;775;51.958;7.976;2022-07-23T02:53:49;9.37;;;5.10;;
1563;SDS011;775;51.958;7.976;2022-07-23T02:56:16;7.60;;;4.47;;
1563;SDS011;775;51.958;7.976;2022-07-23T02:58:43;8.47;;;4.63;;
1563;SDS011;775;51.958;7.976;2022-07-23T03:01:11;8.87;;;6.00;;
1563;SDS011;775;51.958;7.976;2022-07-23T03:03:38;9.27;;;4.90;;
1563;SDS011;775;51.958;7.976;2022-07-23T03:06:06;7.27;;;4.90;;
1563;SDS011;775;51.958;7.976;2022-07-23T03:08:34;9.70;;;5.40;;
1563;SDS011;775;51.958;7.976;2022-07-23T03:11:01;8.93;;;4.93;;
1563;SDS011;775;51.958;7.976;2022-07-23T03:13:28;7.50;;;5.40;;
1563;SDS011;775;51.958;7.976;2022-07-23T03:15:55;9.80;;;5.47;;
1563;SDS011;775;51.958;7.976;2022-07-23T03:18:22;8.27;;;4.90;;
1563;SDS011;775;51.958;7.976;2022-07-23T03:20:49;13.10;;;5.17;;
1563;SDS011;775;51.958;7.976;2022-07-23T03:23:18;8.37;;;5.03;;
1563;SDS011;775;51.958;7.976;2022-07-23T03:25:45;8.23;;;5.60;;
1563;SDS011;775;51.958;7.976;2022-07-23T03:28:13;8.80;;;5.57;;
1563;SDS011;775;51.958;7.976;2022-07-23T03:30:40;7.87;;;4.90;;
1563;SDS011;775;51.958;7.976;2022-07-23T03:33:08;8.60;;;5.50;;
1563;SDS011;775;51.958;7.976;2022-07-23T03:35:35;10.33;;;5.27;;
1563;SDS011;775;51.958;7.976;2022-07-23T03:38:02;7.03;;;5.07;;
1563;SDS011;775;51.958;7.976;2022-07-23T03:40:31;7.47;;;5.07;;
1563;SDS011;775;51.958;7.976;2022-07-23T03:42:58;7.07;;;4.80;;
1563;SDS011;775;51.958;7.976;2022-07-23T03:45:25;9.70;;;5.60;;
1563;SDS011;775;51.958;7.976;2022-07-23T03:47:52;8.30;;;5.50;;
1563;SDS011;775;51.958;7.976;2022-07-23T03:50:19;7.83;;;5.20;;
1563;SDS011;775;51.958;7.976;2022-07-23T03:52:47;8.30;;;5.57;;
1563;SDS011;775;51.958;7.976;2022-07-23T03:55:14;9.43;;;4.97;;
1563;SDS011;775;51.958;7.976;2022-07-23T03:57:43;7.30;;;4.93;;
1563;SDS011;775;51.958;7.976;2022-07-23T04:00:10;7.27;;;5.10;;
1563;SDS011;775;51.958;7.976;2022-07-23T04:02:38;9.47;;;5.50;;
1563;SDS011;775;51.958;7.976;2022-07-23T04:05:06;7.13;;;4.83;;
1563;SDS011;775;51.958;7.976;2022-07-23T04:07:33;7.50;;;4.90;;
1563;SDS011;775;51.958;7.976;2022-07-23T04:10:00;8.30;;;6.13;;
1563;SDS011;775;51.958;7.976;2022-07-23T04:12:27;7.70;;;5.20;;
1563;SDS011;775;51.958;7.976;2022-07-23T04:14:56;7.37;;;5.00;;
1563;SDS011;775;51.958;7.976;2022-07-23T04:17:23;6.87;;;4.80;;
1563;SDS011;775;51.958;7.976;2022-07-23T04:19:50;7.83;;;5.03;;
1563;SDS011;775;51.958;7.976;2022-07-23T04:22:17;8.30;;;4.57;;
1563;SDS011;775;51.958;7.976;2022-07-23T04:24:45;8.27;;;5.23;;
1563;SDS011;775;51.958;7.976;2022-07-23T04:27:12;7.53;;;4.47;;
1563;SDS011;775;51.958;7.976;2022-07-23T04:29:39;7.20;;;4.93;;
1563;SDS011;775;51.958;7.976;2022-07-23T04:32:08;9.83;;;5.63;;
1563;SDS011;775;51.958;7.976;2022-07-23T04:34:35;7.43;;;4.50;;
1563;SDS011;775;51.958;7.976;2022-07-23T04:37:02;7.40;;;5.30;;
1563;SDS011;775;51.958;7.976;2022-07-23T04:39:30;8.47;;;4.80;;
1563;SDS011;775;51.958;7.976;2022-07-23T04:41:57;8.30;;;5.13;;
1563;SDS011;775;51.958;7.976;2022-07-23T04:44:24;7.90;;;5.33;;
1563;SDS011;775;51.958;7.976;2022-07-23T04:46:51;9.83;;;5.17;;
1563;SDS011;775;51.958;7.976;2022-07-23T04:49:20;7.07;;;4.70;;
1563;SDS011;775;51.958;7.976;2022-07-23T04:51:47;7.67;;;5.10;;
1563;SDS011;775;51.958;7.976;2022-07-23T04:54:15;8.93;;;5.53;;
1563;SDS011;775;51.958;7.976;2022-07-23T04:56:42;7.10;;;4.97;;
1563;SDS011;775;51.958;7.976;2022-07-23T04:59:09;6.37;;;4.40;;
1563;SDS011;775;51.958;7.976;2022-07-23T05:01:37;10.40;;;6.27;;
1563;SDS011;775;51.958;7.976;2022-07-23T05:04:04;10.00;;;6.13;;
1563;SDS011;775;51.958;7.976;2022-07-23T05:06:32;8.43;;;5.37;;
1563;SDS011;775;51.958;7.976;2022-07-23T05:08:59;8.50;;;6.13;;
1563;SDS011;775;51.958;7.976;2022-07-23T05:11:27;7.30;;;5.23;;
1563;SDS011;775;51.958;7.976;2022-07-23T05:13:54;7.87;;;5.00;;
1563;SDS011;775;51.958;7.976;2022-07-23T05:16:22;9.33;;;5.23;;
1563;SDS011;775;51.958;7.976;2022-07-23T05:18:49;8.13;;;5.47;;
1563;SDS011;775;51.958;7.976;2022-07-23T05:21:16;7.37;;;5.03;;
1563;SDS011;775;51.958;7.976;2022-07-23T05:23:45;8.87;;;4.80;;
1563;SDS011;775;51.958;7.976;2022-07-23T05:26:12;8.20;;;5.23;;
1563;SDS011;775;51.958;7.976;2022-07-23T05:28:39;7.07;;;4.90;;
1563;SDS011;775;51.958;7.976;2022-07-23T05:31:06;9.80;;;6.27;;
1563;SDS011;775;51.958;7.976;2022-07-23T05:33:33;7.43;;;4.27;;
1563;SDS011;775;51.958;7.976;2022-07-23T05:36:01;8.53;;;5.13;;
1563;SDS011;775;51.958;7.976;2022-07-23T05:38:28;7.20;;;4.97;;
1563;SDS011;775;51.958;7.976;2022-07-23T05:40:57;8.00;;;4.63;;
1563;SDS011;775;51.958;7.976;2022-07-23T05:43:24;11.03;;;5.10;;
1563;SDS011;775;51.958;7.976;2022-07-23T05:45:51;7.53;;;5.47;;
1563;SDS011;775;51.958;7.976;2022-07-23T05:48:19;7.10;;;4.90;;
1563;SDS011;775;51.958;7.976;2022-07-23T05:50:46;9.30;;;5.90;;
1563;SDS011;775;51.958;7.976;2022-07-23T05:53:14;8.47;;;5.23;;
1563;SDS011;775;51.958;7.976;2022-07-23T05:55:41;9.90;;;5.13;;
1563;SDS011;775;51.958;7.976;2022-07-23T05:58:10;9.60;;;5.70;;
1563;SDS011;775;51.958;7.976;2022-07-23T06:00:37;9.53;;;5.20;;
1563;SDS011;775;51.958;7.976;2022-07-23T06:03:04;8.20;;;4.97;;
1563;SDS011;775;51.958;7.976;2022-07-23T06:05:31;7.20;;;5.00;;
1563;SDS011;775;51.958;7.976;2022-07-23T06:07:58;7.60;;;5.17;;
1563;SDS011;775;51.958;7.976;2022-07-23T06:10:26;9.10;;;5.53;;
1563;SDS011;775;51.958;7.976;2022-07-23T06:12:53;8.30;;;4.87;;
1563;SDS011;775;51.958;7.976;2022-07-23T06:15:21;8.83;;;5.20;;
1563;SDS011;775;51.958;7.976;2022-07-23T06:17:49;6.97;;;4.50;;
1563;SDS011;775;51.958;7.976;2022-07-23T06:20:16;9.07;;;5.23;;
1563;SDS011;775;51.958;7.976;2022-07-23T06:22:43;7.10;;;4.67;;
1563;SDS011;775;51.958;7.976;2022-07-23T06:25:10;9.80;;;5.47;;
1563;SDS011;775;51.958;7.976;2022-07-23T06:27:37;10.03;;;5.17;;
1563;SDS011;775;51.958;7.976;2022-07-23T06:30:05;12.00;;;6.10;;
1563;SDS011;775;51.958;7.976;2022-07-23T06:32:34;8.40;;;4.60;;
1563;SDS011;775;51.958;7.976;2022-07-23T06:35:01;7.33;;;4.30;;
1563;SDS011;775;51.958;7.976;2022-07-23T06:37:29;11.83;;;4.80;;
1563;SDS011;775;51.958;7.976;2022-07-23T06:39:56;9.10;;;5.87;;
1563;SDS011;775;51.958;7.976;2022-07-23T06:42:23;7.20;;;4.77;;
1563;SDS011;775;51.958;7.976;2022-07-23T06:44:50;9.47;;;4.47;;
1563;SDS011;775;51.958;7.976;2022-07-23T06:47:17;6.93;;;4.50;;
1563;SDS011;775;51.958;7.976;2022-07-23T06:49:46;8.20;;;4.50;;
1563;SDS011;775;51.958;7.976;2022-07-23T06:52:13;9.20;;;4.80;;
1563;SDS011;775;51.958;7.976;2022-07-23T06:54:40;8.30;;;4.87;;
1563;SDS011;775;51.958;7.976;2022-07-23T06:57:08;6.83;;;4.63;;
1563;SDS011;775;51.958;7.976;2022-07-23T06:59:35;8.10;;;5.33;;
1563;SDS011;775;51.958;7.976;2022-07-23T07:02:05;7.50;;;4.00;;
1563;SDS011;775;51.958;7.976;2022-07-23T07:04:32;6.90;;;4.27;;
1563;SDS011;775;51.958;7.976;2022-07-23T07:07:01;8.30;;;4.37;;
1563;SDS011;775;51.958;7.976;2022-07-23T07:09:28;8.17;;;4.70;;
1563;SDS011;775;51.958;7.976;2022-07-23T07:11:55;8.43;;;4.43;;
1563;SDS011;775;51.958;7.976;2022-07-23T07:14:22;11.03;;;4.80;;
1563;SDS011;775;51.958;7.976;2022-07-23T07:16:49;7.33;;;4.83;;
1563;SDS011;775;51.958;7.976;2022-07-23T07:19:17;7.40;;;4.80;;
1563;SDS011;775;51.958;7.976;2022-07-23T07:21:44;9.10;;;5.10;;
1563;SDS011;775;51.958;7.976;2022-07-23T07:24:12;7.90;;;4.87;;
1563;SDS011;775;51.958;7.976;2022-07-23T07:26:40;8.90;;;5.30;;
1563;SDS011;775;51.958;7.976;2022-07-23T07:29:07;10.63;;;4.63;;
1563;SDS011;775;51.958;7.976;2022-07-23T07:31:34;9.50;;;5.03;;
1563;SDS011;775;51.958;7.976;2022-07-23T07:34:01;7.40;;;4.53;;
1563;SDS011;775;51.958;7.976;2022-07-23T07:36:28;9.13;;;5.27;;
1563;SDS011;775;51.958;7.976;2022-07-23T07:38:55;8.10;;;4.17;;
1563;SDS011;775;51.958;7.976;2022-07-23T07:41:24;6.80;;;4.33;;
1563;SDS011;775;51.958;7.976;2022-07-23T07:43:51;11.10;;;4.63;;
1563;SDS011;775;51.958;7.976;2022-07-23T07:46:19;11.07;;;3.87;;
1563;SDS011;775;51.958;7.976;2022-07-23T07:48:46;6.90;;;4.13;;
1563;SDS011;775;51.958;7.976;2022-07-23T07:51:13;7.40;;;4.40;;
1563;SDS011;775;51.958;7.976;2022-07-23T07:53:40;8.23;;;4.43;;
1563;SDS011;775;51.958;7.976;2022-07-23T07:56:08;8.97;;;4.07;;
1563;SDS011;775;51.958;7.976;2022-07-23T07:58:36;10.00;;;3.83;;
1563;SDS011;775;51.958;7.976;2022-07-23T08:01:03;6.10;;;3.47;;
1563;SDS011;775;51.958;7.976;2022-07-23T08:03:31;7.60;;;3.47;;
1563;SDS011;775;51.958;7.976;2022-07-23T08:05:58;8.13;;;3.50;;
1563;SDS011;775;51.958;7.976;2022-07-23T08:08:25;6.80;;;3.60;;
1563;SDS011;775;51.958;7.976;2022-07-23T08:10:52;5.70;;;2.93;;
1563;SDS011;775;51.958;7.976;2022-07-23T08:13:19;6.60;;;3.07;;
1563;SDS011;775;51.958;7.976;2022-07-23T08:15:48;7.90;;;3.93;;
1563;SDS011;775;51.958;7.976;2022-07-23T08:18:18;7.03;;;3.60;;
1563;SDS011;775;51.958;7.976;2022-07-23T08:20:45;5.80;;;3.70;;
1563;SDS011;775;51.958;7.976;2022-07-23T08:23:12;9.20;;;3.43;;
1563;SDS011;775;51.958;7.976;2022-07-23T08:25:40;8.03;;;3.03;;
1563;SDS011;775;51.958;7.976;2022-07-23T08:28:09;6.80;;;3.47;;
1563;SDS011;775;51.958;7.976;2022-07-23T08:30:36;5.13;;;2.60;;
1563;SDS011;775;51.958;7.976;2022-07-23T08:33:06;5.10;;;2.67;;
1563;SDS011;775;51.958;7.976;2022-07-23T08:35:38;6.70;;;3.70;;
1563;SDS011;775;51.958;7.976;2022-07-23T08:38:06;6.00;;;3.20;;
1563;SDS011;775;51.958;7.976;2022-07-23T08:40:34;6.63;;;2.80;;
1563;SDS011;775;51.958;7.976;2022-07-23T08:43:02;6.70;;;2.87;;
1563;SDS011;775;51.958;7.976;2022-07-23T08:45:31;8.20;;;3.37;;
1563;SDS011;775;51.958;7.976;2022-07-23T08:48:02;6.13;;;2.90;;
1563;SDS011;775;51.958;7.976;2022-07-23T08:50:31;6.80;;;3.60;;
1563;SDS011;775;51.958;7.976;2022-07-23T08:52:59;6.10;;;3.50;;
1563;SDS011;775;51.958;7.976;2022-07-23T08:55:28;7.53;;;3.37;;
1563;SDS011;775;51.958;7.976;2022-07-23T08:57:55;6.00;;;2.87;;
1563;SDS011;775;51.958;7.976;2022-07-23T09:00:22;6.43;;;3.70;;
1563;SDS011;775;51.958;7.976;2022-07-23T09:02:50;6.40;;;3.30;;
1563;SDS011;775;51.958;7.976;2022-07-23T09:05:17;6.47;;;4.50;;
1563;SDS011;775;51.958;7.976;2022-07-23T09:10:32;10.30;;;3.73;;
1563;SDS011;775;51.958;7.976;2022-07-23T09:13:14;6.13;;;3.47;;
1563;SDS011;775;51.958;7.976;2022-07-23T09:15:49;8.43;;;3.87;;
1563;SDS011;775;51.958;7.976;2022-07-23T09:18:16;7.73;;;4.60;;
1563;SDS011;775;51.958;7.976;2022-07-23T09:20:44;6.27;;;3.87;;
1563;SDS011;775;51.958;7.976;2022-07-23T09:23:11;6.53;;;3.33;;
1563;SDS011;775;51.958;7.976;2022-07-23T09:25:39;5.77;;;3.63;;
1563;SDS011;775;51.958;7.976;2022-07-23T09:28:06;6.83;;;3.27;;
1563;SDS011;775;51.958;7.976;2022-07-23T09:30:34;6.70;;;3.90;;
1563;SDS011;775;51.958;7.976;2022-07-23T09:33:04;6.63;;;3.50;;
1563;SDS011;775;51.958;7.976;2022-07-23T09:35:44;6.50;;;3.83;;
1563;SDS011;775;51.958;7.976;2022-07-23T09:38:12;7.23;;;3.47;;
1563;SDS011;775;51.958;7.976;2022-07-23T09:40:40;7.07;;;3.30;;
1563;SDS011;775;51.958;7.976;2022-07-23T09:43:08;5.83;;;2.90;;
1563;SDS011;775;51.958;7.976;2022-07-23T09:45:35;5.73;;;2.97;;
1563;SDS011;775;51.958;7.976;2022-07-23T09:48:10;6.97;;;3.10;;
1563;SDS011;775;51.958;7.976;2022-07-23T09:50:38;5.67;;;3.13;;
1563;SDS011;775;51.958;7.976;2022-07-23T09:53:05;6.57;;;2.83;;
1563;SDS011;775;51.958;7.976;2022-07-23T09:55:33;7.13;;;2.67;;
1563;SDS011;775;51.958;7.976;2022-07-23T09:58:03;6.90;;;2.70;;
1563;SDS011;775;51.958;7.976;2022-07-23T10:00:31;5.53;;;2.40;;
1563;SDS011;775;51.958;7.976;2022-07-23T10:02:59;4.80;;;2.00;;
1563;SDS011;775;51.958;7.976;2022-07-23T10:05:26;5.47;;;2.33;;
1563;SDS011;775;51.958;7.976;2022-07-23T10:07:54;5.20;;;2.67;;
1563;SDS011;775;51.958;7.976;2022-07-23T10:10:21;4.40;;;2.10;;
1563;SDS011;775;51.958;7.976;2022-07-23T10:12:49;6.03;;;2.83;;
1563;SDS011;775;51.958;7.976;2022-07-23T10:15:36;5.33;;;3.00;;
1563;SDS011;775;51.958;7.976;2022-07-23T10:18:03;5.33;;;2.50;;
1563;SDS011;775;51.958;7.976;2022-07-23T10:20:30;4.83;;;2.43;;
1563;SDS011;775;51.958;7.976;2022-07-23T10:22:59;5.07;;;2.20;;
1563;SDS011;775;51.958;7.976;2022-07-23T10:25:29;4.37;;;2.00;;
1563;SDS011;775;51.958;7.976;2022-07-23T10:28:06;4.60;;;2.20;;
1563;SDS011;775;51.958;7.976;2022-07-23T10:30:36;6.83;;;2.27;;
1563;SDS011;775;51.958;7.976;2022-07-23T10:33:20;5.20;;;2.23;;
1563;SDS011;775;51.958;7.976;2022-07-23T10:35:50;4.33;;;1.83;;
1563;SDS011;775;51.958;7.976;2022-07-23T10:38:20;4.97;;;2.20;;
1563;SDS011;775;51.958;7.976;2022-07-23T10:40:54;5.90;;;1.93;;
1563;SDS011;775;51.958;7.976;2022-07-23T10:43:21;7.87;;;2.53;;
1563;SDS011;775;51.958;7.976;2022-07-23T10:45:51;6.23;;;2.47;;
1563;SDS011;775;51.958;7.976;2022-07-23T10:48:19;9.13;;;3.20;;
1563;SDS011;775;51.958;7.976;2022-07-23T10:53:28;4.40;;;1.70;;
1563;SDS011;775;51.958;7.976;2022-07-23T10:56:15;5.40;;;1.70;;
1563;SDS011;775;51.958;7.976;2022-07-23T10:58:46;5.03;;;1.90;;
1563;SDS011;775;51.958;7.976;2022-07-23T11:04:00;5.83;;;2.50;;
1563;SDS011;775;51.958;7.976;2022-07-23T11:09:23;4.60;;;1.70;;
1563;SDS011;775;51.958;7.976;2022-07-23T11:12:05;4.70;;;2.27;;
1563;SDS011;775;51.958;7.976;2022-07-23T11:14:58;5.90;;;2.30;;
1563;SDS011;775;51.958;7.976;2022-07-23T11:17:26;5.30;;;2.03;;
1563;SDS011;775;51.958;7.976;2022-07-23T11:22:47;4.70;;;1.70;;
1563;SDS011;775;51.958;7.976;2022-07-23T11:25:28;7.17;;;2.23;;
1563;SDS011;775;51.958;7.976;2022-07-23T11:27:55;5.47;;;2.00;;
1563;SDS011;775;51.958;7.976;2022-07-23T11:30:37;3.80;;;1.60;;
1563;SDS011;775;51.958;7.976;2022-07-23T11:33:18;4.30;;;1.80;;
1563;SDS011;775;51.958;7.976;2022-07-23T11:35:46;5.17;;;1.87;;
1563;SDS011;775;51.958;7.976;2022-07-23T11:38:16;4.17;;;1.63;;
1563;SDS011;775;51.958;7.976;2022-07-23T11:40:44;4.87;;;1.80;;
1563;SDS011;775;51.958;7.976;2022-07-23T11:43:12;7.40;;;2.00;;
1563;SDS011;775;51.958;7.976;2022-07-23T11:45:39;4.30;;;1.73;;
1563;SDS011;775;51.958;7.976;2022-07-23T11:48:07;6.40;;;2.00;;
1563;SDS011;775;51.958;7.976;2022-07-23T11:50:35;5.20;;;2.10;;
1563;SDS011;775;51.958;7.976;2022-07-23T11:53:02;4.40;;;1.67;;
1563;SDS011;775;51.958;7.976;2022-07-23T11:55:31;6.37;;;1.80;;
1563;SDS011;775;51.958;7.976;2022-07-23T11:57:58;4.40;;;1.70;;
1563;SDS011;775;51.958;7.976;2022-07-23T12:00:26;5.50;;;1.80;;
1563;SDS011;775;51.958;7.976;2022-07-23T12:02:55;4.43;;;1.70;;
1563;SDS011;775;51.958;7.976;2022-07-23T12:05:25;3.67;;;1.27;;
1563;SDS011;775;51.958;7.976;2022-07-23T12:07:52;4.07;;;1.63;;
1563;SDS011;775;51.958;7.976;2022-07-23T12:10:20;4.73;;;1.77;;
1563;SDS011;775;51.958;7.976;2022-07-23T12:12:50;4.30;;;1.60;;
1563;SDS011;775;51.958;7.976;2022-07-23T12:15:18;3.93;;;1.50;;
1563;SDS011;775;51.958;7.976;2022-07-23T12:17:46;4.13;;;1.40;;
1563;SDS011;775;51.958;7.976;2022-07-23T12:20:14;4.40;;;1.57;;
1563;SDS011;775;51.958;7.976;2022-07-23T12:22:42;3.60;;;1.37;;
1563;SDS011;775;51.958;7.976;2022-07-23T12:25:12;4.23;;;1.63;;
1563;SDS011;775;51.958;7.976;2022-07-23T12:27:40;4.27;;;1.40;;
1563;SDS011;775;51.958;7.976;2022-07-23T12:30:22;4.17;;;1.63;;
1563;SDS011;775;51.958;7.976;2022-07-23T12:32:51;3.90;;;1.27;;
1563;SDS011;775;51.958;7.976;2022-07-23T12:35:19;4.20;;;1.30;;
1563;SDS011;775;51.958;7.976;2022-07-23T12:37:47;4.30;;;1.50;;
1563;SDS011;775;51.958;7.976;2022-07-23T12:40:19;5.07;;;1.50;;
1563;SDS011;775;51.958;7.976;2022-07-23T12:42:46;4.43;;;1.70;;
1563;SDS011;775;51.958;7.976;2022-07-23T12:45:14;3.87;;;1.33;;
1563;SDS011;775;51.958;7.976;2022-07-23T12:47:53;4.40;;;1.60;;
1563;SDS011;775;51.958;7.976;2022-07-23T12:50:30;4.90;;;1.67;;
1563;SDS011;775;51.958;7.976;2022-07-23T12:53:04;5.80;;;1.53;;
1563;SDS011;775;51.958;7.976;2022-07-23T12:55:32;5.03;;;1.53;;
1563;SDS011;775;51.958;7.976;2022-07-23T12:58:03;4.17;;;1.67;;
1563;SDS011;775;51.958;7.976;2022-07-23T13:00:31;5.40;;;2.47;;
1563;SDS011;775;51.958;7.976;2022-07-23T13:02:59;3.80;;;1.37;;
1563;SDS011;775;51.958;7.976;2022-07-23T13:05:27;4.17;;;1.43;;
1563;SDS011;775;51.958;7.976;2022-07-23T13:07:54;5.90;;;1.80;;
1563;SDS011;775;51.958;7.976;2022-07-23T13:10:21;4.50;;;1.60;;
1563;SDS011;775;51.958;7.976;2022-07-23T13:12:48;4.23;;;1.43;;
1563;SDS011;775;51.958;7.976;2022-07-23T13:15:16;5.00;;;1.40;;
1563;SDS011;775;51.958;7.976;2022-07-23T13:17:43;4.40;;;1.37;;
1563;SDS011;775;51.958;7.976;2022-07-23T13:20:12;3.90;;;1.23;;
1563;SDS011;775;51.958;7.976;2022-07-23T13:22:39;4.97;;;1.70;;
1563;SDS011;775;51.958;7.976;2022-07-23T13:25:07;5.00;;;1.27;;
1563;SDS011;775;51.958;7.976;2022-07-23T13:27:35;4.17;;;1.77;;
1563;SDS011;775;51.958;7.976;2022-07-23T13:30:02;3.90;;;1.30;;
1563;SDS011;775;51.958;7.976;2022-07-23T13:32:30;4.90;;;1.57;;
1563;SDS011;775;51.958;7.976;2022-07-23T13:34:57;16.93;;;2.00;;
1563;SDS011;775;51.958;7.976;2022-07-23T13:37:26;3.80;;;1.50;;
1563;SDS011;775;51.958;7.976;2022-07-23T13:39:53;4.43;;;1.50;;
1563;SDS011;775;51.958;7.976;2022-07-23T13:42:20;5.40;;;2.07;;
1563;SDS011;775;51.958;7.976;2022-07-23T13:44:47;4.07;;;1.60;;
1563;SDS011;775;51.958;7.976;2022-07-23T13:47:15;4.03;;;1.63;;
1563;SDS011;775;51.958;7.976;2022-07-23T13:49:42;4.00;;;1.60;;
1563;SDS011;775;51.958;7.976;2022-07-23T13:52:09;3.73;;;1.37;;
1563;SDS011;775;51.958;7.976;2022-07-23T13:54:38;3.70;;;1.40;;
1563;SDS011;775;51.958;7.976;2022-07-23T13:57:05;4.30;;;1.80;;
1563;SDS011;775;51.958;7.976;2022-07-23T13:59:34;3.83;;;1.47;;
1563;SDS011;775;51.958;7.976;2022-07-23T14:02:01;3.90;;;1.50;;
1563;SDS011;775;51.958;7.976;2022-07-23T14:04:29;5.70;;;1.90;;
1563;SDS011;775;51.958;7.976;2022-07-23T14:06:56;5.40;;;1.90;;
1563;SDS011;775;51.958;7.976;2022-07-23T14:09:23;4.60;;;2.00;;
1563;SDS011;775;51.958;7.976;2022-07-23T14:11:52;4.40;;;1.57;;
1563;SDS011;775;51.958;7.976;2022-07-23T14:14:19;4.83;;;1.50;;
1563;SDS011;775;51.958;7.976;2022-07-23T14:16:47;3.97;;;1.30;;
1563;SDS011;775;51.958;7.976;2022-07-23T14:19:14;5.93;;;1.60;;
1563;SDS011;775;51.958;7.976;2022-07-23T14:21:41;4.97;;;1.70;;
1563;SDS011;775;51.958;7.976;2022-07-23T14:24:09;5.53;;;1.70;;
1563;SDS011;775;51.958;7.976;2022-07-23T14:26:36;4.47;;;1.60;;
1563;SDS011;775;51.958;7.976;2022-07-23T14:29:05;3.93;;;1.37;;
1563;SDS011;775;51.958;7.976;2022-07-23T14:31:32;4.30;;;1.83;;
1563;SDS011;775;51.958;7.976;2022-07-23T14:33:59;5.23;;;1.73;;
1563;SDS011;775;51.958;7.976;2022-07-23T14:36:26;4.03;;;1.47;;
1563;SDS011;775;51.958;7.976;2022-07-23T14:38:53;4.17;;;1.90;;
1563;SDS011;775;51.958;7.976;2022-07-23T14:41:21;5.83;;;1.67;;
1563;SDS011;775;51.958;7.976;2022-07-23T14:43:48;4.53;;;1.70;;
1563;SDS011;775;51.958;7.976;2022-07-23T14:46:17;6.63;;;2.20;;
1563;SDS011;775;51.958;7.976;2022-07-23T14:48:44;3.93;;;1.67;;
1563;SDS011;775;51.958;7.976;2022-07-23T14:51:12;3.70;;;1.43;;
1563;SDS011;775;51.958;7.976;2022-07-23T14:53:39;3.80;;;1.40;;
1563;SDS011;775;51.958;7.976;2022-07-23T14:56:06;3.93;;;1.63;;
1563;SDS011;775;51.958;7.976;2022-07-23T14:58:33;5.00;;;1.90;;
1563;SDS011;775;51.958;7.976;2022-07-23T15:01:01;4.70;;;1.70;;
1563;SDS011;775;51.958;7.976;2022-07-23T15:03:29;6.17;;;1.70;;
1563;SDS011;775;51.958;7.976;2022-07-23T15:05:56;5.97;;;1.60;;
1563;SDS011;775;51.958;7.976;2022-07-23T15:08:24;4.57;;;1.60;;
1563;SDS011;775;51.958;7.976;2022-07-23T15:10:51;4.07;;;1.70;;
1563;SDS011;775;51.958;7.976;2022-07-23T15:13:18;4.93;;;2.00;;
1563;SDS011;775;51.958;7.976;2022-07-23T15:15:45;4.60;;;1.43;;
1563;SDS011;775;51.958;7.976;2022-07-23T15:18:13;3.80;;;1.37;;
1563;SDS011;775;51.958;7.976;2022-07-23T15:20:41;4.30;;;1.50;;
1563;SDS011;775;51.958;7.976;2022-07-23T15:23:09;4.43;;;1.60;;
1563;SDS011;775;51.958;7.976;2022-07-23T15:25:36;3.87;;;1.60;;
1563;SDS011;775;51.958;7.976;2022-07-23T15:28:03;4.90;;;2.10;;
1563;SDS011;775;51.958;7.976;2022-07-23T15:30:30;4.23;;;1.90;;
1563;SDS011;775;51.958;7.976;2022-07-23T15:32:58;3.90;;;1.57;;
1563;SDS011;775;51.958;7.976;2022-07-23T15:35:25;5.10;;;1.50;;
1563;SDS011;775;51.958;7.976;2022-07-23T15:37:53;4.10;;;1.50;;
1563;SDS011;775;51.958;7.976;2022-07-23T15:40:21;4.60;;;1.50;;
1563;SDS011;775;51.958;7.976;2022-07-23T15:42:48;6.90;;;1.83;;
1563;SDS011;775;51.958;7.976;2022-07-23T15:45:15;4.00;;;1.67;;
1563;SDS011;775;51.958;7.976;2022-07-23T15:47:43;4.43;;;1.70;;
1563;SDS011;775;51.958;7.976;2022-07-23T15:50:10;4.40;;;1.80;;